La Grande Rivière Airport
CYGL : now visible

Airfield :











YOU CAN JOIN US ON...

 
LOGIN :

Register | Disclaimer

   EN    FR    IT 

 









Legend :    VFR   Marginal VFR   IFR   Intensive IFR   Very Intensive IFR
Visi :
Ceiling :
>= 8 km
>= 3000ft
5 to 8 km
1000 to 3000 ft
1500m to 5 km
500 to 1000 ft
800 to 1500m
200 to 500 ft
< 800m
< 200 ft
Symbols :   Thunderstorms  Fog  Heavy snow  Heavy precipitations  Wind > 20 kt







- Airport Elevation : 639 ft
- IATA code : YGL


CYGL - La Grande Rivière

CURRENT METAR :
  • 210400Z 17002KT 15SM SKC 07/05 A3018 RMK SLP230

EXPIRED METARs :
  • 210300Z 25002KT 15SM SKC 07/06 A3019 RMK SLP233
  • 210200Z 24003KT 15SM SKC 08/06 A3020 RMK SLP239

TAF TAF CYGL
Valid from the 21 at 00:00 until the 22 at 00:00 UTC


202338Z 2100/2124 29005KT P6SM FEW030 FEW160
BECMG 2101/2103 VRB03KT
FM210300 VRB03KT P6SM FEW240
PROB30 2103/2110 1/2SM FG VV002
FM211200 17010KT P6SM SCT120
FM211500 17010G20KT P6SM OVC100
BECMG 2116/2118 18015G25KT
BECMG 2122/2124 20020G30KT RMK NXT FCST BY 210600Z
No reported NOTAMs for that airfield.



MET'MAP, your aeronautical weather chart ! - Copyright ORBIFLY December 2007 - Disclaimer

ORBIFLY MET'MAP TEAM :

Programming & Development : Alexandra Zaïnal
Concept & Development : Baudouin d'Aumeries
Co-Development & Prog : Marc-Olivier Méhu
Technical & hardware support : Manuel Goepfert

Contact : metmap@orbifly.com




SOURCES & CREDITS :

   NOAA       Earth
Advisory